sensor_id;sensor_type;location;lat;lon;timestamp;temperature;humidity
57434;DHT22;43277;52.672;6.984;2022-10-23T00:01:18;11.00;99.90
57434;DHT22;43277;52.672;6.984;2022-10-23T00:03:45;11.10;99.90
57434;DHT22;43277;52.672;6.984;2022-10-23T00:06:12;11.10;99.90
57434;DHT22;43277;52.672;6.984;2022-10-23T00:08:38;11.10;99.90
57434;DHT22;43277;52.672;6.984;2022-10-23T00:11:08;11.10;99.90
57434;DHT22;43277;52.672;6.984;2022-10-23T00:13:34;11.10;99.90
57434;DHT22;43277;52.672;6.984;2022-10-23T00:16:00;11.10;99.90
57434;DHT22;43277;52.672;6.984;2022-10-23T00:18:25;11.10;99.90
57434;DHT22;43277;52.672;6.984;2022-10-23T00:20:51;11.10;99.90
57434;DHT22;43277;52.672;6.984;2022-10-23T00:23:16;11.10;99.90
57434;DHT22;43277;52.672;6.984;2022-10-23T00:25:42;11.10;99.90
57434;DHT22;43277;52.672;6.984;2022-10-23T00:28:08;11.10;99.90
57434;DHT22;43277;52.672;6.984;2022-10-23T00:30:33;11.10;99.90
57434;DHT22;43277;52.672;6.984;2022-10-23T00:32:59;11.10;99.90
57434;DHT22;43277;52.672;6.984;2022-10-23T00:35:24;11.10;99.90
57434;DHT22;43277;52.672;6.984;2022-10-23T00:37:50;11.10;99.90
57434;DHT22;43277;52.672;6.984;2022-10-23T00:40:21;11.10;99.90
57434;DHT22;43277;52.672;6.984;2022-10-23T00:42:46;11.10;99.90
57434;DHT22;43277;52.672;6.984;2022-10-23T00:45:17;11.10;99.90
57434;DHT22;43277;52.672;6.984;2022-10-23T00:47:43;11.00;99.90
57434;DHT22;43277;52.672;6.984;2022-10-23T00:50:09;11.00;99.90
57434;DHT22;43277;52.672;6.984;2022-10-23T00:52:39;11.10;99.90
57434;DHT22;43277;52.672;6.984;2022-10-23T00:55:06;11.00;99.90
57434;DHT22;43277;52.672;6.984;2022-10-23T00:57:32;10.90;99.90
57434;DHT22;43277;52.672;6.984;2022-10-23T00:59:57;10.80;99.90
57434;DHT22;43277;52.672;6.984;2022-10-23T01:02:23;10.80;99.90
57434;DHT22;43277;52.672;6.984;2022-10-23T01:04:49;10.80;99.90
57434;DHT22;43277;52.672;6.984;2022-10-23T01:07:32;10.80;99.90
57434;DHT22;43277;52.672;6.984;2022-10-23T01:12:49;10.80;99.90
57434;DHT22;43277;52.672;6.984;2022-10-23T01:15:30;10.80;99.90
57434;DHT22;43277;52.672;6.984;2022-10-23T01:20:48;10.80;99.90
57434;DHT22;43277;52.672;6.984;2022-10-23T01:26:28;10.70;99.90
57434;DHT22;43277;52.672;6.984;2022-10-23T01:31:55;10.70;99.90
57434;DHT22;43277;52.672;6.984;2022-10-23T01:34:53;10.70;99.90
57434;DHT22;43277;52.672;6.984;2022-10-23T01:37:28;10.70;99.90
57434;DHT22;43277;52.672;6.984;2022-10-23T01:39:59;10.60;99.90
57434;DHT22;43277;52.672;6.984;2022-10-23T01:42:36;10.60;99.90
57434;DHT22;43277;52.672;6.984;2022-10-23T01:45:12;10.60;99.90
57434;DHT22;43277;52.672;6.984;2022-10-23T01:47:39;10.60;99.90
57434;DHT22;43277;52.672;6.984;2022-10-23T01:50:07;10.60;99.90
57434;DHT22;43277;52.672;6.984;2022-10-23T01:52:33;10.50;99.90
57434;DHT22;43277;52.672;6.984;2022-10-23T01:55:00;10.50;99.90
57434;DHT22;43277;52.672;6.984;2022-10-23T01:57:29;10.50;99.90
57434;DHT22;43277;52.672;6.984;2022-10-23T02:00:08;10.50;99.90
57434;DHT22;43277;52.672;6.984;2022-10-23T02:02:35;10.50;99.90
57434;DHT22;43277;52.672;6.984;2022-10-23T02:05:06;10.50;99.90
57434;DHT22;43277;52.672;6.984;2022-10-23T02:07:34;10.40;99.90
57434;DHT22;43277;52.672;6.984;2022-10-23T02:10:03;10.50;99.90
57434;DHT22;43277;52.672;6.984;2022-10-23T02:15:29;10.50;99.90
57434;DHT22;43277;52.672;6.984;2022-10-23T02:18:04;10.40;99.90
57434;DHT22;43277;52.672;6.984;2022-10-23T02:20:40;10.40;99.90
57434;DHT22;43277;52.672;6.984;2022-10-23T02:25:50;10.50;99.90
57434;DHT22;43277;52.672;6.984;2022-10-23T02:28:22;10.50;99.90
57434;DHT22;43277;52.672;6.984;2022-10-23T02:30:49;10.50;99.90
57434;DHT22;43277;52.672;6.984;2022-10-23T02:33:15;10.50;99.90
57434;DHT22;43277;52.672;6.984;2022-10-23T02:35:42;10.50;99.90
57434;DHT22;43277;52.672;6.984;2022-10-23T02:38:32;10.50;99.90
57434;DHT22;43277;52.672;6.984;2022-10-23T02:41:24;10.50;99.90
57434;DHT22;43277;52.672;6.984;2022-10-23T02:52:51;10.50;99.90
57434;DHT22;43277;52.672;6.984;2022-10-23T03:01:01;10.50;99.90
57434;DHT22;43277;52.672;6.984;2022-10-23T03:03:39;10.50;99.90
57434;DHT22;43277;52.672;6.984;2022-10-23T03:06:06;10.50;99.90
57434;DHT22;43277;52.672;6.984;2022-10-23T03:08:59;10.50;99.90
57434;DHT22;43277;52.672;6.984;2022-10-23T03:11:25;10.60;99.90
57434;DHT22;43277;52.672;6.984;2022-10-23T03:13:51;10.50;99.90
57434;DHT22;43277;52.672;6.984;2022-10-23T03:16:17;10.40;99.90
57434;DHT22;43277;52.672;6.984;2022-10-23T03:18:42;10.50;99.90
57434;DHT22;43277;52.672;6.984;2022-10-23T03:21:08;10.40;99.90
57434;DHT22;43277;52.672;6.984;2022-10-23T03:23:33;10.40;99.90
57434;DHT22;43277;52.672;6.984;2022-10-23T03:25:59;10.40;99.90
57434;DHT22;43277;52.672;6.984;2022-10-23T03:28:25;10.40;99.90
57434;DHT22;43277;52.672;6.984;2022-10-23T03:30:51;10.40;99.90
57434;DHT22;43277;52.672;6.984;2022-10-23T03:33:16;10.40;99.90
57434;DHT22;43277;52.672;6.984;2022-10-23T03:35:42;10.40;99.90
57434;DHT22;43277;52.672;6.984;2022-10-23T03:38:08;10.40;99.90
57434;DHT22;43277;52.672;6.984;2022-10-23T03:40:33;10.40;99.90
57434;DHT22;43277;52.672;6.984;2022-10-23T03:42:59;10.40;99.90
57434;DHT22;43277;52.672;6.984;2022-10-23T03:45:24;10.30;99.90
57434;DHT22;43277;52.672;6.984;2022-10-23T03:47:50;10.30;99.90
57434;DHT22;43277;52.672;6.984;2022-10-23T03:50:17;10.30;99.90
57434;DHT22;43277;52.672;6.984;2022-10-23T03:52:43;10.20;99.90
57434;DHT22;43277;52.672;6.984;2022-10-23T03:55:08;10.20;99.90
57434;DHT22;43277;52.672;6.984;2022-10-23T03:57:34;10.20;99.90
57434;DHT22;43277;52.672;6.984;2022-10-23T04:00:00;10.20;99.90
57434;DHT22;43277;52.672;6.984;2022-10-23T04:02:26;10.20;99.90
57434;DHT22;43277;52.672;6.984;2022-10-23T04:04:51;10.20;99.90
57434;DHT22;43277;52.672;6.984;2022-10-23T04:07:17;10.10;99.90
57434;DHT22;43277;52.672;6.984;2022-10-23T04:09:42;10.20;99.90
57434;DHT22;43277;52.672;6.984;2022-10-23T04:12:08;10.20;99.90
57434;DHT22;43277;52.672;6.984;2022-10-23T04:14:34;10.20;99.90
57434;DHT22;43277;52.672;6.984;2022-10-23T04:16:59;10.20;99.90
57434;DHT22;43277;52.672;6.984;2022-10-23T04:19:25;10.20;99.90
57434;DHT22;43277;52.672;6.984;2022-10-23T04:21:50;10.20;99.90
57434;DHT22;43277;52.672;6.984;2022-10-23T04:24:16;10.20;99.90
57434;DHT22;43277;52.672;6.984;2022-10-23T04:26:42;10.20;99.90
57434;DHT22;43277;52.672;6.984;2022-10-23T04:29:07;10.20;99.90
57434;DHT22;43277;52.672;6.984;2022-10-23T04:31:33;10.30;99.90
57434;DHT22;43277;52.672;6.984;2022-10-23T04:33:59;10.30;99.90
57434;DHT22;43277;52.672;6.984;2022-10-23T04:36:24;10.30;99.90
57434;DHT22;43277;52.672;6.984;2022-10-23T04:38:50;10.30;99.90
57434;DHT22;43277;52.672;6.984;2022-10-23T04:41:17;10.30;99.90
57434;DHT22;43277;52.672;6.984;2022-10-23T04:43:43;10.30;99.90
57434;DHT22;43277;52.672;6.984;2022-10-23T04:46:08;10.20;99.90
57434;DHT22;43277;52.672;6.984;2022-10-23T04:48:34;10.30;99.90
57434;DHT22;43277;52.672;6.984;2022-10-23T04:51:03;10.30;99.90
57434;DHT22;43277;52.672;6.984;2022-10-23T04:53:29;10.30;99.90
57434;DHT22;43277;52.672;6.984;2022-10-23T04:55:56;10.30;99.90
57434;DHT22;43277;52.672;6.984;2022-10-23T04:58:23;10.20;99.90
57434;DHT22;43277;52.672;6.984;2022-10-23T05:00:49;10.30;99.90
57434;DHT22;43277;52.672;6.984;2022-10-23T05:03:16;10.30;99.90
57434;DHT22;43277;52.672;6.984;2022-10-23T05:05:42;10.30;99.90
57434;DHT22;43277;52.672;6.984;2022-10-23T05:08:08;10.30;99.90
57434;DHT22;43277;52.672;6.984;2022-10-23T05:10:34;10.30;99.90
57434;DHT22;43277;52.672;6.984;2022-10-23T05:13:00;10.30;99.90
57434;DHT22;43277;52.672;6.984;2022-10-23T05:15:26;10.30;99.90
57434;DHT22;43277;52.672;6.984;2022-10-23T05:17:55;10.40;99.90
57434;DHT22;43277;52.672;6.984;2022-10-23T05:20:25;10.30;99.90
57434;DHT22;43277;52.672;6.984;2022-10-23T05:22:54;10.30;99.90
57434;DHT22;43277;52.672;6.984;2022-10-23T05:25:20;10.30;99.90
57434;DHT22;43277;52.672;6.984;2022-10-23T05:27:46;10.30;99.90
57434;DHT22;43277;52.672;6.984;2022-10-23T05:30:12;10.30;99.90
57434;DHT22;43277;52.672;6.984;2022-10-23T05:32:38;10.30;99.90
57434;DHT22;43277;52.672;6.984;2022-10-23T05:35:10;10.30;99.90
57434;DHT22;43277;52.672;6.984;2022-10-23T05:37:40;10.30;99.90
57434;DHT22;43277;52.672;6.984;2022-10-23T05:40:06;10.30;99.90
57434;DHT22;43277;52.672;6.984;2022-10-23T05:42:32;10.30;99.90
57434;DHT22;43277;52.672;6.984;2022-10-23T05:44:58;10.20;99.90
57434;DHT22;43277;52.672;6.984;2022-10-23T05:47:23;10.30;99.90
57434;DHT22;43277;52.672;6.984;2022-10-23T05:49:49;10.20;99.90
57434;DHT22;43277;52.672;6.984;2022-10-23T05:52:14;10.20;99.90
57434;DHT22;43277;52.672;6.984;2022-10-23T05:54:40;10.20;99.90
57434;DHT22;43277;52.672;6.984;2022-10-23T05:57:05;10.20;99.90
57434;DHT22;43277;52.672;6.984;2022-10-23T05:59:31;10.20;99.90
57434;DHT22;43277;52.672;6.984;2022-10-23T06:01:57;10.20;99.90
57434;DHT22;43277;52.672;6.984;2022-10-23T06:04:22;10.20;99.90
57434;DHT22;43277;52.672;6.984;2022-10-23T06:06:48;10.30;99.90
57434;DHT22;43277;52.672;6.984;2022-10-23T06:09:14;10.30;99.90
57434;DHT22;43277;52.672;6.984;2022-10-23T06:11:40;10.30;99.90
57434;DHT22;43277;52.672;6.984;2022-10-23T06:14:06;10.40;99.90
57434;DHT22;43277;52.672;6.984;2022-10-23T06:16:32;10.40;99.90
57434;DHT22;43277;52.672;6.984;2022-10-23T06:18:57;10.40;99.90
57434;DHT22;43277;52.672;6.984;2022-10-23T06:21:24;10.50;99.90
57434;DHT22;43277;52.672;6.984;2022-10-23T06:23:49;10.50;99.90
57434;DHT22;43277;52.672;6.984;2022-10-23T06:26:16;10.50;99.90
57434;DHT22;43277;52.672;6.984;2022-10-23T06:28:42;10.50;99.90
57434;DHT22;43277;52.672;6.984;2022-10-23T06:31:10;10.60;99.90
57434;DHT22;43277;52.672;6.984;2022-10-23T06:33:36;10.60;99.90
57434;DHT22;43277;52.672;6.984;2022-10-23T06:36:02;10.60;99.90
57434;DHT22;43277;52.672;6.984;2022-10-23T06:38:30;10.70;99.90
57434;DHT22;43277;52.672;6.984;2022-10-23T06:41:01;10.70;99.90
57434;DHT22;43277;52.672;6.984;2022-10-23T06:43:27;10.70;99.90
57434;DHT22;43277;52.672;6.984;2022-10-23T06:45:53;10.70;99.90
57434;DHT22;43277;52.672;6.984;2022-10-23T06:48:19;10.80;99.90
57434;DHT22;43277;52.672;6.984;2022-10-23T06:50:44;10.80;99.90
57434;DHT22;43277;52.672;6.984;2022-10-23T06:53:10;10.90;99.90
57434;DHT22;43277;52.672;6.984;2022-10-23T06:55:37;10.90;99.90
57434;DHT22;43277;52.672;6.984;2022-10-23T06:58:06;10.90;99.90
57434;DHT22;43277;52.672;6.984;2022-10-23T07:00:38;10.90;99.90
57434;DHT22;43277;52.672;6.984;2022-10-23T07:03:04;10.90;99.90
57434;DHT22;43277;52.672;6.984;2022-10-23T07:05:31;11.00;99.90
57434;DHT22;43277;52.672;6.984;2022-10-23T07:07:56;11.00;99.90
57434;DHT22;43277;52.672;6.984;2022-10-23T07:10:22;11.00;99.90
57434;DHT22;43277;52.672;6.984;2022-10-23T07:12:47;11.10;99.90
57434;DHT22;43277;52.672;6.984;2022-10-23T07:15:14;11.10;99.90
57434;DHT22;43277;52.672;6.984;2022-10-23T07:17:39;11.10;99.90
57434;DHT22;43277;52.672;6.984;2022-10-23T07:20:05;11.10;99.90
57434;DHT22;43277;52.672;6.984;2022-10-23T07:22:31;11.20;99.90
57434;DHT22;43277;52.672;6.984;2022-10-23T07:24:57;11.20;99.90
57434;DHT22;43277;52.672;6.984;2022-10-23T07:27:22;11.30;99.90
57434;DHT22;43277;52.672;6.984;2022-10-23T07:29:51;11.30;99.90
57434;DHT22;43277;52.672;6.984;2022-10-23T07:32:17;11.30;99.90
57434;DHT22;43277;52.672;6.984;2022-10-23T07:34:43;11.40;99.90
57434;DHT22;43277;52.672;6.984;2022-10-23T07:37:09;11.40;99.90
57434;DHT22;43277;52.672;6.984;2022-10-23T07:39:34;11.40;99.90
57434;DHT22;43277;52.672;6.984;2022-10-23T07:42:00;11.40;99.90
57434;DHT22;43277;52.672;6.984;2022-10-23T07:44:25;11.40;99.90
57434;DHT22;43277;52.672;6.984;2022-10-23T07:46:51;11.50;99.90
57434;DHT22;43277;52.672;6.984;2022-10-23T07:49:17;11.50;99.90
57434;DHT22;43277;52.672;6.984;2022-10-23T07:51:43;11.50;99.90
57434;DHT22;43277;52.672;6.984;2022-10-23T07:54:11;11.60;99.90
57434;DHT22;43277;52.672;6.984;2022-10-23T07:56:37;11.60;99.90
57434;DHT22;43277;52.672;6.984;2022-10-23T07:59:03;11.60;99.90
57434;DHT22;43277;52.672;6.984;2022-10-23T08:01:38;11.70;99.90
57434;DHT22;43277;52.672;6.984;2022-10-23T08:04:05;11.70;99.90
57434;DHT22;43277;52.672;6.984;2022-10-23T08:06:31;11.70;99.90
57434;DHT22;43277;52.672;6.984;2022-10-23T08:08:57;11.80;99.90
57434;DHT22;43277;52.672;6.984;2022-10-23T08:11:23;11.90;99.90
57434;DHT22;43277;52.672;6.984;2022-10-23T08:13:56;11.90;99.90
57434;DHT22;43277;52.672;6.984;2022-10-23T08:16:23;12.00;99.90
57434;DHT22;43277;52.672;6.984;2022-10-23T08:18:49;12.00;99.90
57434;DHT22;43277;52.672;6.984;2022-10-23T08:21:16;12.10;99.90
57434;DHT22;43277;52.672;6.984;2022-10-23T08:23:42;12.10;99.90
57434;DHT22;43277;52.672;6.984;2022-10-23T08:26:09;12.20;99.90
57434;DHT22;43277;52.672;6.984;2022-10-23T08:28:34;12.20;99.90
57434;DHT22;43277;52.672;6.984;2022-10-23T08:31:15;12.30;99.90
57434;DHT22;43277;52.672;6.984;2022-10-23T08:33:41;12.30;99.90
57434;DHT22;43277;52.672;6.984;2022-10-23T08:36:24;12.40;99.90
57434;DHT22;43277;52.672;6.984;2022-10-23T08:38:51;12.50;99.90
57434;DHT22;43277;52.672;6.984;2022-10-23T08:41:35;12.60;99.90
57434;DHT22;43277;52.672;6.984;2022-10-23T08:44:37;12.70;99.90
57434;DHT22;43277;52.672;6.984;2022-10-23T08:49:46;12.80;99.90
57434;DHT22;43277;52.672;6.984;2022-10-23T08:52:24;12.90;99.90
57434;DHT22;43277;52.672;6.984;2022-10-23T08:55:01;13.00;99.90
57434;DHT22;43277;52.672;6.984;2022-10-23T08:57:32;13.10;99.90
57434;DHT22;43277;52.672;6.984;2022-10-23T09:00:18;13.10;99.90
57434;DHT22;43277;52.672;6.984;2022-10-23T09:02:47;13.30;99.90
57434;DHT22;43277;52.672;6.984;2022-10-23T09:05:29;13.30;99.90
57434;DHT22;43277;52.672;6.984;2022-10-23T09:11:10;13.50;99.90
57434;DHT22;43277;52.672;6.984;2022-10-23T09:13:49;13.60;99.90
57434;DHT22;43277;52.672;6.984;2022-10-23T09:19:16;13.80;99.90
57434;DHT22;43277;52.672;6.984;2022-10-23T09:21:47;13.80;99.90
57434;DHT22;43277;52.672;6.984;2022-10-23T09:24:22;13.90;99.90
57434;DHT22;43277;52.672;6.984;2022-10-23T09:26:50;13.90;99.90
57434;DHT22;43277;52.672;6.984;2022-10-23T09:30:07;14.00;99.90
57434;DHT22;43277;52.672;6.984;2022-10-23T09:32:07;14.10;99.90
57434;DHT22;43277;52.672;6.984;2022-10-23T09:34:34;14.10;99.90
57434;DHT22;43277;52.672;6.984;2022-10-23T09:39:58;14.30;99.90
57434;DHT22;43277;52.672;6.984;2022-10-23T09:42:25;14.30;99.90
57434;DHT22;43277;52.672;6.984;2022-10-23T09:44:53;14.40;99.90
57434;DHT22;43277;52.672;6.984;2022-10-23T09:47:21;14.40;99.90
57434;DHT22;43277;52.672;6.984;2022-10-23T09:49:55;14.50;99.90
57434;DHT22;43277;52.672;6.984;2022-10-23T09:52:39;14.60;99.90
57434;DHT22;43277;52.672;6.984;2022-10-23T09:55:34;14.70;99.90
57434;DHT22;43277;52.672;6.984;2022-10-23T09:57:59;14.70;99.90
57434;DHT22;43277;52.672;6.984;2022-10-23T10:00:26;14.70;99.90
57434;DHT22;43277;52.672;6.984;2022-10-23T10:05:30;14.90;99.90
57434;DHT22;43277;52.672;6.984;2022-10-23T10:08:14;15.00;99.90
57434;DHT22;43277;52.672;6.984;2022-10-23T10:10:56;15.10;99.90
57434;DHT22;43277;52.672;6.984;2022-10-23T10:18:41;15.10;99.90
57434;DHT22;43277;52.672;6.984;2022-10-23T10:24:05;15.20;99.90
57434;DHT22;43277;52.672;6.984;2022-10-23T10:26:46;15.20;99.90
57434;DHT22;43277;52.672;6.984;2022-10-23T10:29:18;15.20;99.90
57434;DHT22;43277;52.672;6.984;2022-10-23T10:34:40;15.30;99.90
57434;DHT22;43277;52.672;6.984;2022-10-23T10:40:25;15.50;99.90
57434;DHT22;43277;52.672;6.984;2022-10-23T10:43:27;15.60;99.90
57434;DHT22;43277;52.672;6.984;2022-10-23T10:57:10;15.80;99.90
57434;DHT22;43277;52.672;6.984;2022-10-23T10:59:39;15.90;99.90
57434;DHT22;43277;52.672;6.984;2022-10-23T11:02:30;15.80;99.90
57434;DHT22;43277;52.672;6.984;2022-10-23T11:05:28;15.90;99.90
57434;DHT22;43277;52.672;6.984;2022-10-23T11:08:12;15.90;99.90
57434;DHT22;43277;52.672;6.984;2022-10-23T11:10:42;15.90;99.90
57434;DHT22;43277;52.672;6.984;2022-10-23T11:13:36;16.00;99.90
57434;DHT22;43277;52.672;6.984;2022-10-23T11:16:23;16.00;99.90
57434;DHT22;43277;52.672;6.984;2022-10-23T11:21:42;16.00;99.90
57434;DHT22;43277;52.672;6.984;2022-10-23T11:24:12;16.00;99.90
57434;DHT22;43277;52.672;6.984;2022-10-23T11:30:03;16.00;99.90
57434;DHT22;43277;52.672;6.984;2022-10-23T11:37:43;16.00;99.90
57434;DHT22;43277;52.672;6.984;2022-10-23T11:45:24;16.10;99.90
57434;DHT22;43277;52.672;6.984;2022-10-23T11:47:57;16.20;99.90
57434;DHT22;43277;52.672;6.984;2022-10-23T11:50:52;16.20;99.90
57434;DHT22;43277;52.672;6.984;2022-10-23T11:56:03;16.30;99.90
57434;DHT22;43277;52.672;6.984;2022-10-23T11:58:54;16.30;99.90
57434;DHT22;43277;52.672;6.984;2022-10-23T12:01:38;16.30;99.90
57434;DHT22;43277;52.672;6.984;2022-10-23T12:04:19;16.30;99.90
57434;DHT22;43277;52.672;6.984;2022-10-23T12:06:57;16.40;99.90
57434;DHT22;43277;52.672;6.984;2022-10-23T12:09:39;16.30;99.90
57434;DHT22;43277;52.672;6.984;2022-10-23T12:14:46;16.40;99.90
57434;DHT22;43277;52.672;6.984;2022-10-23T12:20:00;16.40;99.90
57434;DHT22;43277;52.672;6.984;2022-10-23T12:22:33;16.40;99.90
57434;DHT22;43277;52.672;6.984;2022-10-23T12:28:02;16.50;99.90
57434;DHT22;43277;52.672;6.984;2022-10-23T12:31:01;16.60;99.90
57434;DHT22;43277;52.672;6.984;2022-10-23T12:33:44;16.60;99.90
57434;DHT22;43277;52.672;6.984;2022-10-23T12:39:30;16.70;99.90
57434;DHT22;43277;52.672;6.984;2022-10-23T12:42:00;16.70;99.90
57434;DHT22;43277;52.672;6.984;2022-10-23T12:44:26;16.70;99.90
57434;DHT22;43277;52.672;6.984;2022-10-23T12:47:02;16.70;99.90
57434;DHT22;43277;52.672;6.984;2022-10-23T12:49:30;16.70;99.90
57434;DHT22;43277;52.672;6.984;2022-10-23T12:52:03;16.70;99.90
57434;DHT22;43277;52.672;6.984;2022-10-23T12:54:31;16.70;99.90
57434;DHT22;43277;52.672;6.984;2022-10-23T12:56:57;16.70;99.90
57434;DHT22;43277;52.672;6.984;2022-10-23T12:59:59;16.70;99.90
57434;DHT22;43277;52.672;6.984;2022-10-23T13:04:48;16.70;99.90
57434;DHT22;43277;52.672;6.984;2022-10-23T13:07:17;16.70;99.90
57434;DHT22;43277;52.672;6.984;2022-10-23T13:09:45;16.70;99.90
57434;DHT22;43277;52.672;6.984;2022-10-23T13:12:21;16.70;99.90
57434;DHT22;43277;52.672;6.984;2022-10-23T13:17:46;16.70;99.90
57434;DHT22;43277;52.672;6.984;2022-10-23T13:23:08;16.80;99.90
57434;DHT22;43277;52.672;6.984;2022-10-23T13:25:35;16.80;99.90
57434;DHT22;43277;52.672;6.984;2022-10-23T13:28:41;16.80;99.90
57434;DHT22;43277;52.672;6.984;2022-10-23T13:33:43;16.90;99.90
57434;DHT22;43277;52.672;6.984;2022-10-23T13:38:39;16.80;99.90
57434;DHT22;43277;52.672;6.984;2022-10-23T13:41:13;16.90;99.90
57434;DHT22;43277;52.672;6.984;2022-10-23T13:43:40;16.80;99.90
57434;DHT22;43277;52.672;6.984;2022-10-23T13:46:15;16.90;99.90
57434;DHT22;43277;52.672;6.984;2022-10-23T13:48:40;16.90;99.90
57434;DHT22;43277;52.672;6.984;2022-10-23T13:51:13;16.90;99.90
57434;DHT22;43277;52.672;6.984;2022-10-23T13:53:39;16.80;99.90
57434;DHT22;43277;52.672;6.984;2022-10-23T13:56:05;16.90;99.90
57434;DHT22;43277;52.672;6.984;2022-10-23T13:58:31;16.90;99.90
57434;DHT22;43277;52.672;6.984;2022-10-23T14:00:57;16.90;99.90
57434;DHT22;43277;52.672;6.984;2022-10-23T14:03:23;16.90;99.90
57434;DHT22;43277;52.672;6.984;2022-10-23T14:05:52;16.90;99.90
57434;DHT22;43277;52.672;6.984;2022-10-23T14:08:17;16.80;99.90
57434;DHT22;43277;52.672;6.984;2022-10-23T14:10:43;16.80;99.90
57434;DHT22;43277;52.672;6.984;2022-10-23T14:13:08;16.80;99.90
57434;DHT22;43277;52.672;6.984;2022-10-23T14:15:34;16.80;99.90
57434;DHT22;43277;52.672;6.984;2022-10-23T14:18:00;16.80;99.90
57434;DHT22;43277;52.672;6.984;2022-10-23T14:20:26;16.80;99.90
57434;DHT22;43277;52.672;6.984;2022-10-23T14:22:51;16.70;99.90
57434;DHT22;43277;52.672;6.984;2022-10-23T14:25:17;16.80;99.90
57434;DHT22;43277;52.672;6.984;2022-10-23T14:27:43;16.70;99.90
57434;DHT22;43277;52.672;6.984;2022-10-23T14:30:09;16.80;99.90
57434;DHT22;43277;52.672;6.984;2022-10-23T14:32:35;16.70;99.90
57434;DHT22;43277;52.672;6.984;2022-10-23T14:35:01;16.60;99.90
57434;DHT22;43277;52.672;6.984;2022-10-23T14:37:29;16.70;99.90
57434;DHT22;43277;52.672;6.984;2022-10-23T14:39:55;16.70;99.90
57434;DHT22;43277;52.672;6.984;2022-10-23T14:42:21;16.80;99.90
57434;DHT22;43277;52.672;6.984;2022-10-23T14:44:46;16.80;99.90
57434;DHT22;43277;52.672;6.984;2022-10-23T14:47:14;16.80;99.90
57434;DHT22;43277;52.672;6.984;2022-10-23T14:49:40;16.80;99.90
57434;DHT22;43277;52.672;6.984;2022-10-23T14:52:07;16.90;99.90
57434;DHT22;43277;52.672;6.984;2022-10-23T14:54:33;16.80;99.90
57434;DHT22;43277;52.672;6.984;2022-10-23T14:57:01;16.90;99.90
57434;DHT22;43277;52.672;6.984;2022-10-23T14:59:26;16.90;99.90
57434;DHT22;43277;52.672;6.984;2022-10-23T15:01:52;16.90;99.90
57434;DHT22;43277;52.672;6.984;2022-10-23T15:04:18;17.00;99.90
57434;DHT22;43277;52.672;6.984;2022-10-23T15:06:44;17.00;99.90
57434;DHT22;43277;52.672;6.984;2022-10-23T15:09:12;16.80;99.90
57434;DHT22;43277;52.672;6.984;2022-10-23T15:11:38;17.00;99.90
57434;DHT22;43277;52.672;6.984;2022-10-23T15:14:04;16.90;99.90
57434;DHT22;43277;52.672;6.984;2022-10-23T15:16:30;16.90;99.90
57434;DHT22;43277;52.672;6.984;2022-10-23T15:18:55;16.90;99.90
57434;DHT22;43277;52.672;6.984;2022-10-23T15:21:21;16.80;99.90
57434;DHT22;43277;52.672;6.984;2022-10-23T15:23:47;16.90;99.90
57434;DHT22;43277;52.672;6.984;2022-10-23T15:26:18;16.70;99.90
57434;DHT22;43277;52.672;6.984;2022-10-23T15:28:51;16.70;99.90
57434;DHT22;43277;52.672;6.984;2022-10-23T15:31:39;16.60;99.90
57434;DHT22;43277;52.672;6.984;2022-10-23T15:34:06;16.70;99.90
57434;DHT22;43277;52.672;6.984;2022-10-23T15:36:32;16.60;99.90
57434;DHT22;43277;52.672;6.984;2022-10-23T15:38:59;16.60;99.90
57434;DHT22;43277;52.672;6.984;2022-10-23T15:41:32;16.60;99.90
57434;DHT22;43277;52.672;6.984;2022-10-23T15:43:59;16.60;99.90
57434;DHT22;43277;52.672;6.984;2022-10-23T15:46:25;16.50;99.90
57434;DHT22;43277;52.672;6.984;2022-10-23T15:48:51;16.60;99.90
57434;DHT22;43277;52.672;6.984;2022-10-23T15:51:16;16.50;99.90
57434;DHT22;43277;52.672;6.984;2022-10-23T15:53:42;16.50;99.90
57434;DHT22;43277;52.672;6.984;2022-10-23T15:56:08;16.40;99.90
57434;DHT22;43277;52.672;6.984;2022-10-23T15:58:34;16.40;99.90
57434;DHT22;43277;52.672;6.984;2022-10-23T16:01:03;16.30;99.90
57434;DHT22;43277;52.672;6.984;2022-10-23T16:03:35;16.30;99.90
57434;DHT22;43277;52.672;6.984;2022-10-23T16:06:10;16.20;99.90
57434;DHT22;43277;52.672;6.984;2022-10-23T16:08:36;16.20;99.90
57434;DHT22;43277;52.672;6.984;2022-10-23T16:11:03;16.20;99.90
57434;DHT22;43277;52.672;6.984;2022-10-23T16:13:28;16.10;99.90
57434;DHT22;43277;52.672;6.984;2022-10-23T16:15:54;16.00;99.90
57434;DHT22;43277;52.672;6.984;2022-10-23T16:18:21;16.10;99.90
57434;DHT22;43277;52.672;6.984;2022-10-23T16:20:47;16.00;99.90
57434;DHT22;43277;52.672;6.984;2022-10-23T16:23:15;15.90;99.90
57434;DHT22;43277;52.672;6.984;2022-10-23T16:25:41;15.90;99.90
57434;DHT22;43277;52.672;6.984;2022-10-23T16:28:06;15.90;99.90
57434;DHT22;43277;52.672;6.984;2022-10-23T16:30:32;15.80;99.90
57434;DHT22;43277;52.672;6.984;2022-10-23T16:32:57;15.80;99.90
57434;DHT22;43277;52.672;6.984;2022-10-23T16:35:23;15.80;99.90
57434;DHT22;43277;52.672;6.984;2022-10-23T16:37:49;15.80;99.90
57434;DHT22;43277;52.672;6.984;2022-10-23T16:40:14;15.60;99.90
57434;DHT22;43277;52.672;6.984;2022-10-23T16:42:40;15.70;99.90
57434;DHT22;43277;52.672;6.984;2022-10-23T16:45:07;15.70;99.90
57434;DHT22;43277;52.672;6.984;2022-10-23T16:47:33;15.60;99.90
57434;DHT22;43277;52.672;6.984;2022-10-23T16:49:59;15.60;99.90
57434;DHT22;43277;52.672;6.984;2022-10-23T16:52:25;15.60;99.90
57434;DHT22;43277;52.672;6.984;2022-10-23T16:54:51;15.60;99.90
57434;DHT22;43277;52.672;6.984;2022-10-23T16:57:16;15.50;99.90
57434;DHT22;43277;52.672;6.984;2022-10-23T16:59:42;15.50;99.90
57434;DHT22;43277;52.672;6.984;2022-10-23T17:02:12;15.50;99.90
57434;DHT22;43277;52.672;6.984;2022-10-23T17:04:38;15.50;99.90
57434;DHT22;43277;52.672;6.984;2022-10-23T17:07:05;15.50;99.90
57434;DHT22;43277;52.672;6.984;2022-10-23T17:09:31;15.40;99.90
57434;DHT22;43277;52.672;6.984;2022-10-23T17:11:57;15.50;99.90
57434;DHT22;43277;52.672;6.984;2022-10-23T17:14:24;15.40;99.90
57434;DHT22;43277;52.672;6.984;2022-10-23T17:16:55;15.40;99.90
57434;DHT22;43277;52.672;6.984;2022-10-23T17:19:23;15.40;99.90
57434;DHT22;43277;52.672;6.984;2022-10-23T17:21:49;15.40;99.90
57434;DHT22;43277;52.672;6.984;2022-10-23T17:24:15;15.40;99.90
57434;DHT22;43277;52.672;6.984;2022-10-23T17:26:41;15.40;99.90
57434;DHT22;43277;52.672;6.984;2022-10-23T17:29:09;15.40;99.90
57434;DHT22;43277;52.672;6.984;2022-10-23T17:31:37;15.40;99.90
57434;DHT22;43277;52.672;6.984;2022-10-23T17:34:06;15.40;99.90
57434;DHT22;43277;52.672;6.984;2022-10-23T17:36:35;15.50;99.90
57434;DHT22;43277;52.672;6.984;2022-10-23T17:39:02;15.60;99.90